createdAt,value
2022-10-20T00:01:26.989Z,8.90
2022-10-20T00:03:58.507Z,8.83
2022-10-20T00:06:29.173Z,8.78
2022-10-20T00:08:59.483Z,8.76
2022-10-20T00:11:29.292Z,8.71
2022-10-20T00:13:59.188Z,8.67
2022-10-20T00:16:30.688Z,8.65
2022-10-20T00:19:01.280Z,8.60
2022-10-20T00:21:30.931Z,8.54
2022-10-20T00:24:01.583Z,8.48
2022-10-20T00:26:31.647Z,8.43
2022-10-20T00:29:00.648Z,8.34
2022-10-20T00:31:29.134Z,8.32
2022-10-20T00:33:58.145Z,8.27
2022-10-20T00:36:28.166Z,8.22
2022-10-20T00:39:00.439Z,8.12
2022-10-20T00:41:30.157Z,8.11
2022-10-20T00:44:00.396Z,8.00
2022-10-20T00:46:33.772Z,7.97
2022-10-20T00:49:08.109Z,7.94
2022-10-20T00:51:38.821Z,7.90
2022-10-20T00:54:14.537Z,7.84
2022-10-20T00:56:45.950Z,7.80
2022-10-20T00:59:18.017Z,7.75
2022-10-20T01:01:48.150Z,7.71
2022-10-20T01:04:17.109Z,7.64
2022-10-20T01:06:47.290Z,7.59
2022-10-20T01:09:16.141Z,7.55
2022-10-20T01:11:56.520Z,7.53
2022-10-20T01:14:37.306Z,7.50
2022-10-20T01:17:14.446Z,7.45
2022-10-20T01:20:08.483Z,7.36
2022-10-20T01:23:03.837Z,7.33
2022-10-20T01:25:49.127Z,7.23
2022-10-20T01:28:24.630Z,7.13
2022-10-20T01:30:59.078Z,7.10
2022-10-20T01:33:40.168Z,7.07
2022-10-20T01:36:15.798Z,7.04
2022-10-20T01:38:49.353Z,7.01
2022-10-20T01:41:23.796Z,7.00
2022-10-20T01:43:55.611Z,6.98
2022-10-20T01:46:26.943Z,6.94
2022-10-20T01:48:56.145Z,6.86
2022-10-20T01:51:25.043Z,6.89
2022-10-20T01:53:53.724Z,6.88
2022-10-20T01:56:29.793Z,6.82
2022-10-20T01:59:26.830Z,6.81
2022-10-20T02:02:07.886Z,6.79
2022-10-20T02:04:49.993Z,6.74
2022-10-20T02:07:26.467Z,6.71
2022-10-20T02:10:02.218Z,6.67
2022-10-20T02:12:37.414Z,6.64
2022-10-20T02:15:10.732Z,6.62
2022-10-20T02:17:42.631Z,6.57
2022-10-20T02:20:12.755Z,6.51
2022-10-20T02:22:42.260Z,6.48
2022-10-20T02:25:13.303Z,6.47
2022-10-20T02:27:47.566Z,6.46
2022-10-20T02:30:20.531Z,6.43
2022-10-20T02:32:53.096Z,6.39
2022-10-20T02:35:27.638Z,6.38
2022-10-20T02:37:56.426Z,6.35
2022-10-20T02:40:25.009Z,6.26
2022-10-20T02:42:53.611Z,6.28
2022-10-20T02:45:23.928Z,6.26
2022-10-20T02:47:52.517Z,6.22
2022-10-20T02:50:21.101Z,6.17
2022-10-20T02:52:50.332Z,6.08
2022-10-20T02:57:54.222Z,6.09
2022-10-20T03:00:24.373Z,6.06
2022-10-20T03:02:52.952Z,5.92
2022-10-20T03:05:21.647Z,6.01
2022-10-20T03:07:50.245Z,5.98
2022-10-20T03:10:19.019Z,5.96
2022-10-20T03:12:47.930Z,5.84
2022-10-20T03:15:17.004Z,5.88
2022-10-20T03:17:47.042Z,5.87
2022-10-20T03:20:15.647Z,5.78
2022-10-20T03:22:44.642Z,5.77
2022-10-20T03:25:13.312Z,5.72
2022-10-20T03:27:41.912Z,5.71
2022-10-20T03:30:11.099Z,5.67
2022-10-20T03:32:40.013Z,5.66
2022-10-20T03:35:11.260Z,5.63
2022-10-20T03:37:40.138Z,5.61
2022-10-20T03:40:09.999Z,5.56
2022-10-20T03:42:38.839Z,5.55
2022-10-20T03:45:09.084Z,5.48
2022-10-20T03:47:37.973Z,5.40
2022-10-20T03:50:07.075Z,5.46
2022-10-20T03:52:37.417Z,5.43
2022-10-20T03:55:08.456Z,5.39
2022-10-20T03:57:37.288Z,5.35
2022-10-20T04:00:07.159Z,5.31
2022-10-20T04:02:39.189Z,5.30
2022-10-20T04:05:09.563Z,5.26
2022-10-20T04:07:39.485Z,5.22
2022-10-20T04:10:08.796Z,5.14
2022-10-20T04:12:37.671Z,5.17
2022-10-20T04:15:08.004Z,5.15
2022-10-20T04:17:37.160Z,5.12
2022-10-20T04:20:06.718Z,5.11
2022-10-20T04:22:35.614Z,5.09
2022-10-20T04:25:06.736Z,5.05
2022-10-20T04:27:35.795Z,5.05
2022-10-20T04:30:04.666Z,5.02
2022-10-20T04:32:33.336Z,4.99
2022-10-20T04:35:01.931Z,4.96
2022-10-20T04:37:30.445Z,4.91
2022-10-20T04:39:59.127Z,4.87
2022-10-20T04:42:29.239Z,4.75
2022-10-20T04:47:26.392Z,4.75
2022-10-20T04:49:55.017Z,4.72
2022-10-20T04:52:23.414Z,4.73
2022-10-20T04:54:51.879Z,4.72
2022-10-20T04:57:20.468Z,4.62
2022-10-20T04:59:50.463Z,4.70
2022-10-20T05:02:19.350Z,4.67
2022-10-20T05:04:49.244Z,4.64
2022-10-20T05:07:18.310Z,4.63
2022-10-20T05:09:46.838Z,4.55
2022-10-20T05:14:43.812Z,4.57
2022-10-20T05:17:13.882Z,4.54
2022-10-20T05:19:42.667Z,4.53
2022-10-20T05:22:11.231Z,4.52
2022-10-20T05:24:39.866Z,4.50
2022-10-20T05:27:08.336Z,4.47
2022-10-20T05:29:37.001Z,4.45
2022-10-20T05:32:05.729Z,4.45
2022-10-20T05:34:35.612Z,4.43
2022-10-20T05:37:04.206Z,4.40
2022-10-20T05:39:32.957Z,4.40
2022-10-20T05:42:01.387Z,4.40
2022-10-20T05:44:30.109Z,4.37
2022-10-20T05:46:58.585Z,4.38
2022-10-20T05:49:27.050Z,4.36
2022-10-20T05:51:56.999Z,4.39
2022-10-20T05:54:25.474Z,4.35
2022-10-20T05:56:53.936Z,4.37
2022-10-20T05:59:22.551Z,4.37
2022-10-20T06:01:50.993Z,4.36
2022-10-20T06:04:24.035Z,4.39
2022-10-20T06:06:53.312Z,4.35
2022-10-20T06:09:24.718Z,4.35
2022-10-20T06:11:53.987Z,4.35
2022-10-20T06:14:23.785Z,4.38
2022-10-20T06:16:53.218Z,4.39
2022-10-20T06:19:24.164Z,4.30
2022-10-20T06:21:53.259Z,4.45
2022-10-20T06:24:23.561Z,4.52
2022-10-20T06:26:52.902Z,4.54
2022-10-20T06:29:22.986Z,4.47
2022-10-20T06:31:52.837Z,4.43
2022-10-20T06:34:23.321Z,4.41
2022-10-20T06:36:52.486Z,4.44
2022-10-20T06:39:24.787Z,4.47
2022-10-20T06:41:55.351Z,4.47
2022-10-20T06:44:25.563Z,4.52
2022-10-20T06:46:54.981Z,4.66
2022-10-20T06:49:23.975Z,4.85
2022-10-20T06:51:52.457Z,4.85
2022-10-20T06:54:21.068Z,4.89
2022-10-20T06:56:50.942Z,4.97
2022-10-20T06:59:19.405Z,5.00
2022-10-20T07:01:47.938Z,5.40
2022-10-20T07:04:17.573Z,5.45
2022-10-20T07:06:47.629Z,5.55
2022-10-20T07:09:17.761Z,5.64
2022-10-20T07:11:46.440Z,5.75
2022-10-20T07:14:16.429Z,5.86
2022-10-20T07:16:44.895Z,5.98
2022-10-20T07:19:16.409Z,6.00
2022-10-20T07:21:45.930Z,6.17
2022-10-20T07:24:14.725Z,6.31
2022-10-20T07:26:43.722Z,6.35
2022-10-20T07:29:13.377Z,6.44
2022-10-20T07:31:44.636Z,6.53
2022-10-20T07:34:30.443Z,6.65
2022-10-20T07:36:59.919Z,6.76
2022-10-20T07:39:28.719Z,6.90
2022-10-20T07:41:57.203Z,7.03
2022-10-20T07:44:25.771Z,7.17
2022-10-20T07:46:55.604Z,7.33
2022-10-20T07:49:43.387Z,7.44
2022-10-20T07:52:13.884Z,7.62
2022-10-20T07:54:42.406Z,7.66
2022-10-20T07:57:10.909Z,7.77
2022-10-20T07:59:39.477Z,7.94
2022-10-20T08:02:09.406Z,8.08
2022-10-20T08:04:38.009Z,8.13
2022-10-20T08:07:06.606Z,8.23
2022-10-20T08:09:35.150Z,8.31
2022-10-20T08:12:04.069Z,8.43
2022-10-20T08:14:34.068Z,8.55
2022-10-20T08:17:02.983Z,8.62
2022-10-20T08:19:42.081Z,8.69
2022-10-20T08:22:10.699Z,8.82
2022-10-20T08:24:39.289Z,8.94
2022-10-20T08:27:07.905Z,9.04
2022-10-20T08:29:37.365Z,9.08
2022-10-20T08:32:06.586Z,9.21
2022-10-20T08:34:36.488Z,9.29
2022-10-20T08:37:05.381Z,9.34
2022-10-20T08:39:36.960Z,9.41
2022-10-20T08:42:09.632Z,9.55
2022-10-20T08:44:41.397Z,9.60
2022-10-20T08:47:24.820Z,9.67
2022-10-20T08:49:56.690Z,9.78
2022-10-20T08:52:27.027Z,9.90
2022-10-20T08:54:58.175Z,9.97
2022-10-20T08:57:29.097Z,10.01
2022-10-20T09:00:20.003Z,10.14
2022-10-20T09:02:50.017Z,10.31
2022-10-20T09:05:24.697Z,10.24
2022-10-20T09:07:53.859Z,10.29
2022-10-20T09:10:33.630Z,10.33
2022-10-20T09:13:03.746Z,10.49
2022-10-20T09:15:32.711Z,10.59
2022-10-20T09:18:02.537Z,10.77
2022-10-20T09:20:38.242Z,10.87
2022-10-20T09:23:16.614Z,10.94
2022-10-20T09:25:55.720Z,11.01
2022-10-20T09:28:26.673Z,11.15
2022-10-20T09:30:56.853Z,11.12
2022-10-20T09:33:30.612Z,11.11
2022-10-20T09:36:05.945Z,11.10
2022-10-20T09:38:43.389Z,11.08
2022-10-20T09:41:16.320Z,11.19
2022-10-20T09:43:57.245Z,11.26
2022-10-20T09:46:30.236Z,11.34
2022-10-20T09:48:59.839Z,11.35
2022-10-20T09:51:32.002Z,11.46
2022-10-20T09:54:03.200Z,11.55
2022-10-20T09:56:34.261Z,11.61
2022-10-20T09:59:06.942Z,11.67
2022-10-20T10:01:35.465Z,11.67
2022-10-20T10:04:07.840Z,11.67
2022-10-20T10:06:44.150Z,11.81
2022-10-20T10:09:28.876Z,11.82
2022-10-20T10:12:02.624Z,11.87
2022-10-20T10:14:33.534Z,11.86
2022-10-20T10:17:03.431Z,12.03
2022-10-20T10:19:34.836Z,12.10
2022-10-20T10:22:05.956Z,12.16
2022-10-20T10:24:43.440Z,12.23
2022-10-20T10:27:25.319Z,12.22
2022-10-20T10:29:54.472Z,12.37
2022-10-20T10:32:27.016Z,12.31
2022-10-20T10:35:08.506Z,12.27
2022-10-20T10:37:42.025Z,12.50
2022-10-20T10:40:17.164Z,12.60
2022-10-20T10:43:12.889Z,12.55
2022-10-20T10:45:53.062Z,12.65
2022-10-20T10:48:45.948Z,12.83
2022-10-20T10:51:25.816Z,12.86
2022-10-20T10:54:11.717Z,12.79
2022-10-20T10:56:47.328Z,13.00
2022-10-20T10:59:25.155Z,13.16
2022-10-20T11:02:29.308Z,13.27
2022-10-20T11:05:23.428Z,13.20
2022-10-20T11:08:00.906Z,13.21
2022-10-20T11:10:40.984Z,13.31
2022-10-20T11:13:26.012Z,13.38
2022-10-20T11:16:18.068Z,13.44
2022-10-20T11:19:12.808Z,13.40
2022-10-20T11:21:56.914Z,13.60
2022-10-20T11:24:53.538Z,13.39
2022-10-20T11:27:27.869Z,13.49
2022-10-20T11:30:05.075Z,13.55
2022-10-20T11:32:39.293Z,13.52
2022-10-20T11:35:18.232Z,13.43
2022-10-20T11:37:52.124Z,13.54
2022-10-20T11:40:25.114Z,13.53
2022-10-20T11:43:11.072Z,13.48
2022-10-20T11:45:46.690Z,13.18
2022-10-20T11:48:23.459Z,13.24
2022-10-20T11:54:09.770Z,13.30
2022-10-20T11:56:57.933Z,13.29
2022-10-20T11:59:52.636Z,13.34
2022-10-20T12:02:43.801Z,13.43
2022-10-20T12:05:27.568Z,13.59
2022-10-20T12:08:38.383Z,13.68
2022-10-20T12:11:17.108Z,13.59
2022-10-20T12:13:56.841Z,13.81
2022-10-20T12:17:14.062Z,13.86
2022-10-20T12:19:44.608Z,13.89
2022-10-20T12:22:44.170Z,13.96
2022-10-20T12:25:37.670Z,13.96
2022-10-20T12:28:43.691Z,14.06
2022-10-20T12:31:12.669Z,14.05
2022-10-20T12:34:03.985Z,14.04
2022-10-20T12:36:39.632Z,14.05
2022-10-20T12:39:26.527Z,14.16
2022-10-20T12:42:03.161Z,14.17
2022-10-20T12:44:42.274Z,14.24
2022-10-20T12:47:12.628Z,14.45
2022-10-20T12:49:46.827Z,14.35
2022-10-20T12:52:28.815Z,14.28
2022-10-20T12:55:04.052Z,14.49
2022-10-20T12:57:37.134Z,14.54
2022-10-20T13:00:08.791Z,14.74
2022-10-20T13:02:52.241Z,14.81
2022-10-20T13:05:43.556Z,14.89
2022-10-20T13:08:29.671Z,14.92
2022-10-20T13:11:19.639Z,14.81
2022-10-20T13:14:03.159Z,14.80
2022-10-20T13:16:34.441Z,14.72
2022-10-20T13:19:03.398Z,14.80
2022-10-20T13:21:34.754Z,14.72
2022-10-20T13:24:07.109Z,14.52
2022-10-20T13:26:46.708Z,14.68
2022-10-20T13:29:23.183Z,14.94
2022-10-20T13:32:03.770Z,15.01
2022-10-20T13:34:40.866Z,14.91
2022-10-20T13:37:24.041Z,14.96
2022-10-20T13:40:04.030Z,14.92
2022-10-20T13:42:43.527Z,14.76
2022-10-20T13:45:26.398Z,14.90
2022-10-20T13:48:07.984Z,14.85
2022-10-20T13:50:39.869Z,14.75
2022-10-20T13:53:21.010Z,14.80
2022-10-20T13:56:03.813Z,14.82
2022-10-20T13:58:32.672Z,14.97
2022-10-20T14:01:06.419Z,14.87
2022-10-20T14:03:44.129Z,14.85
2022-10-20T14:06:31.367Z,14.98
2022-10-20T14:09:09.958Z,14.75
2022-10-20T14:11:38.747Z,14.64
2022-10-20T14:14:07.526Z,14.64
2022-10-20T14:16:39.601Z,14.90
2022-10-20T14:19:12.418Z,15.18
2022-10-20T14:21:41.597Z,15.16
2022-10-20T14:24:15.415Z,14.89
2022-10-20T14:26:45.557Z,14.82
2022-10-20T14:29:17.599Z,14.62
2022-10-20T14:31:49.876Z,14.73
2022-10-20T14:34:23.369Z,14.71
2022-10-20T14:36:53.570Z,14.73
2022-10-20T14:39:31.281Z,14.82
2022-10-20T14:42:02.445Z,14.71
2022-10-20T14:44:31.948Z,14.65
2022-10-20T14:47:06.359Z,14.60
2022-10-20T14:49:39.073Z,14.76
2022-10-20T14:52:22.291Z,14.65
2022-10-20T14:54:51.975Z,14.51
2022-10-20T14:57:44.751Z,14.47
2022-10-20T15:00:29.264Z,14.39
2022-10-20T15:03:03.405Z,14.51
2022-10-20T15:05:44.491Z,14.50
2022-10-20T15:08:20.328Z,14.05
2022-10-20T15:10:49.214Z,13.95
2022-10-20T15:13:26.684Z,13.98
2022-10-20T15:15:56.927Z,13.97
2022-10-20T15:18:28.071Z,13.67
2022-10-20T15:20:57.789Z,13.69
2022-10-20T15:23:27.908Z,13.56
2022-10-20T15:26:00.082Z,13.39
2022-10-20T15:28:36.865Z,13.85
2022-10-20T15:31:08.612Z,14.22
2022-10-20T15:33:38.771Z,14.51
2022-10-20T15:36:15.569Z,14.80
2022-10-20T15:38:44.308Z,15.14
2022-10-20T15:41:15.286Z,14.76
2022-10-20T15:43:43.941Z,14.65
2022-10-20T15:46:14.176Z,14.16
2022-10-20T15:48:45.563Z,13.33
2022-10-20T15:51:19.113Z,13.21
2022-10-20T15:53:49.763Z,13.10
2022-10-20T15:56:18.895Z,13.09
2022-10-20T15:58:50.213Z,12.89
2022-10-20T16:01:19.848Z,12.82
2022-10-20T16:03:50.575Z,12.65
2022-10-20T16:06:20.889Z,12.53
2022-10-20T16:08:51.189Z,12.41
2022-10-20T16:11:21.892Z,12.47
2022-10-20T16:13:51.372Z,12.52
2022-10-20T16:16:21.286Z,12.36
2022-10-20T16:18:51.758Z,12.34
2022-10-20T16:21:20.256Z,12.33
2022-10-20T16:23:48.782Z,12.29
2022-10-20T16:26:17.383Z,12.29
2022-10-20T16:28:46.074Z,12.16
2022-10-20T16:31:17.687Z,12.04
2022-10-20T16:33:47.372Z,11.94
2022-10-20T16:36:18.459Z,12.00
2022-10-20T16:38:47.070Z,12.02
2022-10-20T16:41:17.004Z,12.13
2022-10-20T16:43:46.965Z,12.21
2022-10-20T16:46:16.625Z,12.19
2022-10-20T16:48:47.988Z,11.96
2022-10-20T16:51:18.928Z,11.77
2022-10-20T16:53:47.515Z,11.62
2022-10-20T16:56:19.828Z,11.74
2022-10-20T16:58:50.165Z,11.67
2022-10-20T17:01:22.922Z,11.45
2022-10-20T17:03:53.936Z,11.14
2022-10-20T17:06:25.908Z,11.20
2022-10-20T17:08:55.862Z,10.97
2022-10-20T17:11:27.659Z,10.85
2022-10-20T17:13:56.394Z,10.58
2022-10-20T17:16:28.615Z,10.67
2022-10-20T17:18:58.939Z,10.64
2022-10-20T17:21:29.730Z,10.63
2022-10-20T17:24:00.781Z,10.55
2022-10-20T17:26:31.910Z,10.50
2022-10-20T17:29:02.454Z,10.21
2022-10-20T17:31:31.502Z,10.29
2022-10-20T17:34:01.112Z,9.95
2022-10-20T17:36:31.816Z,9.85
2022-10-20T17:39:02.800Z,9.94
2022-10-20T17:41:31.653Z,9.81
2022-10-20T17:44:01.757Z,9.73
2022-10-20T17:46:30.701Z,9.70
2022-10-20T17:48:59.242Z,9.57
2022-10-20T17:51:31.779Z,9.72
2022-10-20T17:54:05.070Z,9.55
2022-10-20T17:56:36.786Z,9.47
2022-10-20T17:59:06.957Z,9.50
2022-10-20T18:01:37.298Z,9.45
2022-10-20T18:04:08.577Z,9.53
2022-10-20T18:06:37.801Z,9.49
2022-10-20T18:09:11.081Z,9.43
2022-10-20T18:11:41.512Z,9.46
2022-10-20T18:14:10.151Z,9.44
2022-10-20T18:16:40.218Z,9.34
2022-10-20T18:19:10.033Z,9.18
2022-10-20T18:21:38.995Z,9.00
2022-10-20T18:24:12.588Z,8.66
2022-10-20T18:26:42.094Z,8.71
2022-10-20T18:29:11.860Z,8.76
2022-10-20T18:31:42.357Z,8.62
2022-10-20T18:34:13.961Z,8.60
2022-10-20T18:36:45.984Z,8.61
2022-10-20T18:39:16.911Z,8.42
2022-10-20T18:41:46.690Z,8.36
2022-10-20T18:44:17.144Z,8.31
2022-10-20T18:46:46.498Z,8.38
2022-10-20T18:49:16.898Z,8.35
2022-10-20T18:51:47.809Z,8.25
2022-10-20T18:54:18.868Z,8.30
2022-10-20T18:56:47.388Z,8.35
2022-10-20T18:59:17.448Z,8.34
2022-10-20T19:01:48.446Z,8.24
2022-10-20T19:04:17.039Z,8.16
2022-10-20T19:06:47.236Z,8.06
2022-10-20T19:09:19.638Z,7.89
2022-10-20T19:14:22.274Z,7.94
2022-10-20T19:16:51.528Z,7.92
2022-10-20T19:19:20.273Z,8.00
2022-10-20T19:21:49.271Z,7.99
2022-10-20T19:24:20.868Z,7.87
2022-10-20T19:26:57.617Z,8.03
2022-10-20T19:29:38.478Z,8.21
2022-10-20T19:32:08.464Z,8.19
2022-10-20T19:34:39.049Z,8.18
2022-10-20T19:37:09.172Z,8.15
2022-10-20T19:39:42.999Z,7.98
2022-10-20T19:42:12.574Z,7.94
2022-10-20T19:44:42.810Z,7.76
2022-10-20T19:47:11.824Z,7.65
2022-10-20T19:49:41.220Z,7.57
2022-10-20T19:52:10.522Z,7.42
2022-10-20T19:54:40.564Z,7.55
2022-10-20T19:57:09.146Z,7.37
2022-10-20T19:59:38.061Z,7.42
2022-10-20T20:02:07.661Z,7.45
2022-10-20T20:04:36.432Z,7.51
2022-10-20T20:07:05.718Z,7.39
2022-10-20T20:09:34.685Z,7.55
2022-10-20T20:12:05.139Z,7.58
2022-10-20T20:14:33.795Z,7.63
2022-10-20T20:17:02.953Z,7.64
2022-10-20T20:19:31.984Z,7.68
2022-10-20T20:22:00.461Z,7.73
2022-10-20T20:24:29.056Z,7.60
2022-10-20T20:26:57.777Z,7.80
2022-10-20T20:29:27.872Z,7.75
2022-10-20T20:31:56.336Z,7.75
2022-10-20T20:34:24.934Z,7.75
2022-10-20T20:36:53.975Z,7.74
2022-10-20T20:39:22.567Z,7.78
2022-10-20T20:41:51.582Z,7.81
2022-10-20T20:44:20.825Z,7.82
2022-10-20T20:46:50.940Z,7.73
2022-10-20T20:49:19.775Z,7.74
2022-10-20T20:51:49.357Z,7.74
2022-10-20T20:54:17.959Z,7.75
2022-10-20T20:56:46.451Z,7.66
2022-10-20T20:59:15.325Z,7.84
2022-10-20T21:01:45.554Z,7.73
2022-10-20T21:04:17.006Z,7.77
2022-10-20T21:07:02.486Z,7.75
2022-10-20T21:09:31.719Z,7.77
2022-10-20T21:12:00.399Z,7.69
2022-10-20T21:14:29.158Z,7.72
2022-10-20T21:16:58.500Z,7.72
2022-10-20T21:19:29.867Z,7.58
2022-10-20T21:21:58.722Z,7.65
2022-10-20T21:24:28.429Z,7.66
2022-10-20T21:26:57.510Z,7.65
2022-10-20T21:29:26.328Z,7.61
2022-10-20T21:31:55.727Z,7.52
2022-10-20T21:34:24.946Z,7.51
2022-10-20T21:36:55.161Z,7.43
2022-10-20T21:39:24.234Z,7.30
2022-10-20T21:41:52.824Z,7.30
2022-10-20T21:44:21.550Z,7.25
2022-10-20T21:46:51.425Z,7.18
2022-10-20T21:49:25.528Z,7.20
2022-10-20T21:51:57.900Z,7.26
2022-10-20T21:54:28.796Z,7.33
2022-10-20T21:56:58.039Z,7.12
2022-10-20T21:59:29.350Z,7.16
2022-10-20T22:02:01.307Z,7.11
2022-10-20T22:04:32.256Z,7.10
2022-10-20T22:07:02.787Z,7.08
2022-10-20T22:09:31.346Z,7.07
2022-10-20T22:12:01.240Z,6.98
2022-10-20T22:14:30.819Z,7.02
2022-10-20T22:17:01.951Z,7.00
2022-10-20T22:19:30.413Z,6.98
2022-10-20T22:21:59.885Z,6.81
2022-10-20T22:24:30.789Z,6.86
2022-10-20T22:26:59.657Z,6.85
2022-10-20T22:29:28.990Z,6.80
2022-10-20T22:31:57.488Z,6.81
2022-10-20T22:34:26.045Z,6.78
2022-10-20T22:36:54.652Z,6.69
2022-10-20T22:39:23.062Z,6.78
2022-10-20T22:41:52.924Z,6.85
2022-10-20T22:44:21.544Z,6.85
2022-10-20T22:46:50.113Z,6.89
2022-10-20T22:49:18.944Z,6.88
2022-10-20T22:51:47.641Z,6.88
2022-10-20T22:54:16.431Z,6.94
2022-10-20T22:56:45.171Z,6.97
2022-10-20T22:59:15.188Z,7.01
2022-10-20T23:01:45.760Z,7.03
2022-10-20T23:04:14.772Z,7.10
2022-10-20T23:06:43.267Z,7.04
2022-10-20T23:09:11.804Z,7.00
2022-10-20T23:11:40.376Z,6.83
2022-10-20T23:14:08.940Z,6.80
2022-10-20T23:16:38.838Z,6.73
2022-10-20T23:19:07.285Z,6.81
2022-10-20T23:21:35.967Z,6.63
2022-10-20T23:24:04.476Z,6.58
2022-10-20T23:26:32.918Z,6.52
2022-10-20T23:29:01.427Z,6.57
2022-10-20T23:31:30.571Z,6.38
2022-10-20T23:34:00.554Z,6.39
2022-10-20T23:36:29.046Z,6.45
2022-10-20T23:38:57.766Z,6.44
2022-10-20T23:41:26.239Z,6.45
2022-10-20T23:43:54.653Z,6.37
2022-10-20T23:46:23.643Z,6.43
2022-10-20T23:48:52.284Z,6.37
2022-10-20T23:51:28.414Z,6.39
2022-10-20T23:53:56.976Z,6.44
2022-10-20T23:56:25.832Z,6.27
2022-10-20T23:59:00.251Z,6.38
